Time;durP1;ratioP1;P1;durP2;ratioP2;P2;SDS_P1;SDS_P2;PMS_P1;PMS_P2;Temp;Humidity;BMP_temperature;BMP_pressure;BME280_temperature;BME280_humidity;BME280_pressure;Samples;Min_cycle;Max_cycle;Signal;HPM_P1;HPM_P2
2021/04/22 00:01:49;;;;;;;7.72;1.77;;;6.00;99.90;;;;;;5046064;28;22361;-65
2021/04/22 00:04:16;;;;;;;6.97;2.40;;;6.00;99.90;;;;;;5049641;28;20040;-65
2021/04/22 00:06:42;;;;;;;7.00;1.20;;;6.00;99.90;;;;;;5047632;28;20044;-66
2021/04/22 00:09:08;;;;;;;11.10;2.05;;;6.10;99.90;;;;;;5029899;28;20036;-65
2021/04/22 00:11:35;;;;;;;7.55;1.95;;;6.10;99.90;;;;;;5048038;28;20520;-66
2021/04/22 00:14:03;;;;;;;7.22;1.73;;;6.10;99.90;;;;;;5048580;28;20433;-65
2021/04/22 00:16:28;;;;;;;12.48;3.15;;;6.10;99.90;;;;;;5045029;28;20037;-66
2021/04/22 00:18:54;;;;;;;13.85;2.00;;;6.10;99.90;;;;;;5047691;28;20040;-65
2021/04/22 00:21:19;;;;;;;12.48;1.88;;;6.10;99.90;;;;;;5048112;28;20029;-65
2021/04/22 00:23:45;;;;;;;11.07;2.00;;;6.10;99.90;;;;;;5048432;28;20040;-66
2021/04/22 00:26:10;;;;;;;13.98;2.03;;;6.00;99.90;;;;;;5048491;28;20040;-65
2021/04/22 00:28:36;;;;;;;7.75;2.17;;;6.00;99.90;;;;;;5048547;28;20041;-66
2021/04/22 00:31:02;;;;;;;17.08;2.10;;;6.10;99.90;;;;;;5057812;28;20041;-66
2021/04/22 00:33:27;;;;;;;5.65;1.80;;;6.00;99.90;;;;;;5056540;28;20029;-66
2021/04/22 00:35:53;;;;;;;15.18;2.28;;;6.00;99.90;;;;;;5058897;28;20033;-66
2021/04/22 00:38:19;;;;;;;10.57;2.63;;;6.00;99.90;;;;;;5053798;28;20528;-65
2021/04/22 00:40:46;;;;;;;14.27;1.95;;;6.00;99.90;;;;;;5047949;28;20142;-65
2021/04/22 00:43:13;;;;;;;15.32;1.80;;;5.90;99.90;;;;;;5047787;28;20036;-65
2021/04/22 00:45:42;;;;;;;19.67;3.78;;;5.90;99.90;;;;;;5047809;28;20026;-66
2021/04/22 00:48:10;;;;;;;16.55;1.98;;;5.90;99.90;;;;;;5047480;28;20032;-65
2021/04/22 00:50:37;;;;;;;11.25;3.35;;;5.90;99.90;;;;;;5047798;28;20166;-65
2021/04/22 00:53:04;;;;;;;18.63;2.45;;;5.90;99.90;;;;;;5046784;28;20036;-66
2021/04/22 00:55:30;;;;;;;14.68;2.53;;;5.90;99.90;;;;;;5047999;28;20027;-65
2021/04/22 00:57:57;;;;;;;14.40;2.97;;;5.90;99.90;;;;;;5042649;28;20029;-65
2021/04/22 01:00:25;;;;;;;14.10;2.53;;;5.90;99.90;;;;;;5047392;28;20036;-65
2021/04/22 01:02:51;;;;;;;15.18;2.17;;;5.90;99.90;;;;;;5047417;28;20509;-65
2021/04/22 01:05:21;;;;;;;15.85;2.10;;;5.90;99.90;;;;;;5047358;28;20044;-65
2021/04/22 01:07:47;;;;;;;12.63;2.10;;;5.90;99.90;;;;;;5047128;28;20441;-68
2021/04/22 01:10:14;;;;;;;9.98;1.75;;;5.90;99.90;;;;;;5046696;28;20033;-65
2021/04/22 01:12:41;;;;;;;13.23;2.05;;;5.90;99.90;;;;;;5047696;28;20041;-65
2021/04/22 01:15:19;;;;;;;17.67;2.25;;;5.90;99.90;;;;;;5047170;28;20033;-66
2021/04/22 01:17:45;;;;;;;16.23;2.28;;;6.00;99.90;;;;;;5046787;28;20458;-65
2021/04/22 01:20:16;;;;;;;10.40;1.88;;;6.00;99.90;;;;;;5046233;28;20029;-65
2021/04/22 01:22:41;;;;;;;9.35;1.90;;;6.00;99.90;;;;;;5046953;28;20041;-65
2021/04/22 01:25:11;;;;;;;15.77;3.45;;;6.00;99.90;;;;;;5044298;28;20025;-65
2021/04/22 01:27:40;;;;;;;11.68;2.53;;;5.90;99.90;;;;;;5047027;28;20043;-66
2021/04/22 01:30:35;;;;;;;14.13;1.90;;;5.90;99.90;;;;;;5045819;28;20029;-65
2021/04/22 01:33:01;;;;;;;23.30;3.72;;;5.90;99.90;;;;;;5019472;28;20041;-65
2021/04/22 01:35:31;;;;;;;11.32;2.00;;;5.90;99.90;;;;;;5028905;28;20040;-65
2021/04/22 01:37:58;;;;;;;14.90;2.15;;;5.80;99.90;;;;;;5024603;28;20057;-66
2021/04/22 01:40:24;;;;;;;12.60;2.67;;;5.70;99.90;;;;;;5047083;28;20394;-65
2021/04/22 01:42:50;;;;;;;10.98;1.42;;;5.60;99.90;;;;;;5047116;28;20033;-65
2021/04/22 01:45:17;;;;;;;13.98;2.42;;;5.60;99.90;;;;;;5028364;28;20032;-64
2021/04/22 01:47:43;;;;;;;14.27;2.88;;;5.50;99.90;;;;;;5046510;28;20120;-65
2021/04/22 01:50:13;;;;;;;10.43;1.90;;;5.40;99.90;;;;;;5045379;28;20158;-65
2021/04/22 01:52:40;;;;;;;8.85;1.83;;;5.30;99.90;;;;;;5028995;28;20040;-65
2021/04/22 01:55:09;;;;;;;18.38;2.55;;;5.20;99.90;;;;;;5045728;28;20127;-65
2021/04/22 01:57:35;;;;;;;12.45;2.03;;;5.10;99.90;;;;;;5046512;28;20131;-65
2021/04/22 02:00:05;;;;;;;16.25;3.08;;;5.10;99.90;;;;;;5045360;28;20033;-65
2021/04/22 02:02:30;;;;;;;14.00;1.88;;;5.10;99.90;;;;;;5046422;28;20032;-65
2021/04/22 02:04:56;;;;;;;12.40;2.42;;;5.00;99.90;;;;;;5028443;28;20371;-65
2021/04/22 02:07:21;;;;;;;9.93;2.13;;;5.00;99.90;;;;;;5046985;28;20414;-65
2021/04/22 02:09:47;;;;;;;15.07;2.13;;;4.90;99.90;;;;;;5050022;28;20444;-65
2021/04/22 02:12:13;;;;;;;10.00;2.55;;;4.80;99.90;;;;;;5046945;28;20044;-65
2021/04/22 02:14:38;;;;;;;8.65;1.50;;;4.80;99.90;;;;;;5046480;28;20032;-64
2021/04/22 02:17:04;;;;;;;9.77;1.65;;;4.70;99.90;;;;;;5028055;28;20040;-65
2021/04/22 02:19:29;;;;;;;12.68;2.08;;;4.60;99.90;;;;;;5045940;28;20078;-65
2021/04/22 02:21:55;;;;;;;12.23;2.22;;;4.60;99.90;;;;;;5046292;28;20123;-65
2021/04/22 02:24:20;;;;;;;14.95;2.13;;;4.50;99.90;;;;;;5046132;28;20114;-64
2021/04/22 02:26:46;;;;;;;10.82;2.58;;;4.50;99.90;;;;;;5049807;28;20040;-65
2021/04/22 02:29:12;;;;;;;13.55;2.53;;;4.50;99.90;;;;;;5052119;28;20194;-65
2021/04/22 02:31:37;;;;;;;18.15;2.00;;;4.40;99.90;;;;;;5052540;28;20041;-63
2021/04/22 02:34:03;;;;;;;15.20;2.22;;;4.30;99.90;;;;;;5053158;28;20033;-65
2021/04/22 02:36:29;;;;;;;11.85;2.72;;;4.30;99.90;;;;;;5052309;28;20048;-66
2021/04/22 02:38:54;;;;;;;12.00;2.40;;;4.30;99.90;;;;;;5052629;28;20494;-65
2021/04/22 02:41:20;;;;;;;11.30;2.42;;;4.20;99.90;;;;;;5051924;28;20405;-64
2021/04/22 02:43:45;;;;;;;12.27;2.90;;;4.20;99.90;;;;;;5034919;28;20032;-65
2021/04/22 02:46:11;;;;;;;8.77;3.20;;;4.30;99.90;;;;;;5051952;28;20056;-65
2021/04/22 02:48:36;;;;;;;12.90;2.13;;;4.30;99.90;;;;;;5051975;28;20402;-64
2021/04/22 02:51:03;;;;;;;5.25;2.05;;;4.30;99.90;;;;;;5052311;28;20512;-66
2021/04/22 02:53:29;;;;;;;13.63;2.58;;;4.30;99.90;;;;;;5052215;28;20072;-65
2021/04/22 02:55:55;;;;;;;10.07;2.22;;;4.30;99.90;;;;;;5034649;28;20118;-65
2021/04/22 02:58:22;;;;;;;15.15;3.05;;;4.30;99.90;;;;;;5033853;28;20039;-65
2021/04/22 03:00:48;;;;;;;9.57;1.88;;;4.30;99.90;;;;;;5052548;28;20033;-65
2021/04/22 03:03:14;;;;;;;7.93;2.00;;;4.30;99.90;;;;;;5052136;28;20064;-64
2021/04/22 03:05:41;;;;;;;17.20;2.58;;;4.20;99.90;;;;;;5052362;28;20397;-64
2021/04/22 03:08:07;;;;;;;20.75;3.97;;;4.20;99.90;;;;;;5052519;28;20048;-64
2021/04/22 03:10:34;;;;;;;16.15;3.03;;;4.20;99.90;;;;;;5051274;28;20339;-65
2021/04/22 03:13:00;;;;;;;11.68;3.20;;;4.10;99.90;;;;;;5034574;28;20052;-64
2021/04/22 03:15:26;;;;;;;16.20;3.20;;;4.10;99.90;;;;;;5051249;28;20045;-64
2021/04/22 03:17:52;;;;;;;13.93;3.17;;;4.10;99.90;;;;;;5052439;28;20482;-65
2021/04/22 03:20:19;;;;;;;17.92;2.45;;;4.10;99.90;;;;;;5047179;28;20033;-64
2021/04/22 03:22:45;;;;;;;9.40;2.92;;;4.00;99.90;;;;;;5052357;28;20402;-64
2021/04/22 03:25:13;;;;;;;8.55;2.80;;;4.00;99.90;;;;;;5052636;28;20087;-65
2021/04/22 03:27:39;;;;;;;18.00;3.20;;;4.00;99.90;;;;;;5051751;28;20513;-64
2021/04/22 03:30:11;;;;;;;16.35;3.38;;;4.00;99.90;;;;;;5033959;28;20113;-64
2021/04/22 03:32:37;;;;;;;11.65;3.20;;;4.00;99.90;;;;;;5051917;28;20029;-64
2021/04/22 03:35:04;;;;;;;15.85;2.72;;;4.00;99.90;;;;;;5052571;28;20167;-65
2021/04/22 03:37:31;;;;;;;26.48;3.67;;;4.00;99.90;;;;;;5050648;28;20441;-65
2021/04/22 03:39:57;;;;;;;14.00;2.70;;;3.90;99.90;;;;;;5030665;28;20498;-65
2021/04/22 03:42:23;;;;;;;13.60;3.40;;;3.90;99.90;;;;;;5048950;28;20509;-64
2021/04/22 03:44:50;;;;;;;22.23;4.10;;;3.90;99.90;;;;;;5049467;28;20033;-65
2021/04/22 03:47:16;;;;;;;17.75;4.13;;;3.90;99.90;;;;;;5031690;28;20035;-65
2021/04/22 03:49:43;;;;;;;17.08;3.78;;;4.00;99.90;;;;;;5030355;28;20124;-65
2021/04/22 03:52:09;;;;;;;19.80;3.45;;;4.00;99.90;;;;;;5030665;28;20037;-65
2021/04/22 03:54:35;;;;;;;19.27;2.50;;;4.00;99.90;;;;;;5048863;28;20403;-65
2021/04/22 03:57:02;;;;;;;15.18;3.67;;;4.00;99.90;;;;;;5049155;28;20040;-65
2021/04/22 03:59:28;;;;;;;18.73;3.08;;;4.10;99.90;;;;;;5048823;28;20083;-65
2021/04/22 04:01:54;;;;;;;23.88;3.63;;;4.10;99.90;;;;;;5031489;28;20524;-65
2021/04/22 04:04:19;;;;;;;15.85;3.00;;;4.20;99.90;;;;;;5049802;28;20041;-64
2021/04/22 04:06:45;;;;;;;12.82;2.30;;;4.20;99.90;;;;;;5044807;28;20033;-65
2021/04/22 04:09:11;;;;;;;13.38;3.42;;;4.20;99.90;;;;;;5049807;28;20068;-66
2021/04/22 04:11:37;;;;;;;14.05;2.17;;;4.20;99.90;;;;;;5048368;28;20044;-65
2021/04/22 04:14:03;;;;;;;14.32;3.08;;;4.30;99.90;;;;;;5050367;28;20043;-64
2021/04/22 04:16:28;;;;;;;15.68;3.40;;;4.30;99.90;;;;;;5049832;28;20631;-64
2021/04/22 04:18:54;;;;;;;16.98;3.10;;;4.30;99.90;;;;;;5057468;28;20045;-65
2021/04/22 04:21:20;;;;;;;15.13;3.70;;;4.30;99.90;;;;;;5061931;28;20063;-65
2021/04/22 04:23:45;;;;;;;9.63;2.80;;;4.30;99.90;;;;;;5043035;28;20041;-65
2021/04/22 04:26:11;;;;;;;21.70;3.65;;;4.40;99.90;;;;;;5058530;28;20053;-65
2021/04/22 04:28:36;;;;;;;11.82;3.42;;;4.40;99.90;;;;;;5047827;28;20079;-65
2021/04/22 04:31:02;;;;;;;30.15;5.20;;;4.40;99.90;;;;;;5053640;28;20245;-65
2021/04/22 04:33:28;;;;;;;19.88;2.78;;;4.40;99.90;;;;;;5054425;28;20036;-64
2021/04/22 04:35:53;;;;;;;12.05;2.65;;;4.40;99.90;;;;;;5054074;28;20041;-65
2021/04/22 04:38:19;;;;;;;17.27;2.63;;;4.30;99.90;;;;;;5054337;28;20512;-65
2021/04/22 04:40:45;;;;;;;13.82;2.67;;;4.30;99.90;;;;;;5047272;28;20083;-64
2021/04/22 04:43:10;;;;;;;12.95;2.35;;;4.40;99.90;;;;;;5047647;28;20120;-65
2021/04/22 04:45:36;;;;;;;16.83;2.72;;;4.40;99.90;;;;;;5047492;28;20036;-65
2021/04/22 04:48:02;;;;;;;15.98;3.78;;;4.40;99.90;;;;;;5027286;28;20033;-65
2021/04/22 04:50:28;;;;;;;18.10;2.03;;;4.50;99.90;;;;;;5046783;28;20379;-65
2021/04/22 04:52:53;;;;;;;12.27;3.20;;;4.50;99.90;;;;;;5028516;28;20063;-63
2021/04/22 04:55:19;;;;;;;12.68;2.13;;;4.60;99.90;;;;;;5047596;28;20229;-65
2021/04/22 04:57:45;;;;;;;12.13;2.25;;;4.70;99.90;;;;;;5040193;28;20028;-65
2021/04/22 05:00:12;;;;;;;16.10;3.85;;;4.70;99.90;;;;;;5041302;28;20033;-65
2021/04/22 05:02:38;;;;;;;15.82;2.28;;;4.70;99.90;;;;;;5039202;28;20025;-65
2021/04/22 05:05:04;;;;;;;12.15;3.15;;;4.70;99.90;;;;;;5041955;28;20044;-65
2021/04/22 05:07:30;;;;;;;7.13;2.35;;;4.70;99.90;;;;;;5022169;28;20374;-64
2021/04/22 05:09:56;;;;;;;14.30;2.33;;;4.70;99.90;;;;;;5022455;28;20025;-65
2021/04/22 05:12:22;;;;;;;18.80;2.47;;;4.70;99.90;;;;;;5039841;28;20037;-65
2021/04/22 05:14:48;;;;;;;8.45;2.40;;;4.80;99.90;;;;;;5037244;28;20695;-65
2021/04/22 05:17:14;;;;;;;10.18;1.85;;;4.80;99.90;;;;;;5043804;28;20043;-64
2021/04/22 05:19:39;;;;;;;9.32;2.25;;;4.90;99.90;;;;;;5043006;28;20095;-65
2021/04/22 05:22:05;;;;;;;16.83;1.92;;;4.90;99.90;;;;;;5043345;28;20059;-65
2021/04/22 05:24:31;;;;;;;12.13;2.25;;;5.10;99.90;;;;;;5044144;28;20405;-65
2021/04/22 05:26:56;;;;;;;11.57;1.90;;;5.20;99.90;;;;;;5044971;28;20040;-64
2021/04/22 05:29:22;;;;;;;9.30;2.65;;;5.30;99.90;;;;;;5044083;28;20043;-65
2021/04/22 05:31:47;;;;;;;7.97;1.65;;;5.40;99.90;;;;;;5043247;28;20062;-65
2021/04/22 05:34:13;;;;;;;7.22;2.03;;;5.50;99.90;;;;;;5025211;28;20041;-65
2021/04/22 05:36:38;;;;;;;8.60;1.88;;;5.60;99.90;;;;;;5025995;28;20072;-65
2021/04/22 05:39:05;;;;;;;11.55;2.65;;;5.70;99.90;;;;;;5044394;28;20083;-65
2021/04/22 05:41:30;;;;;;;17.20;2.10;;;5.80;99.90;;;;;;5044634;28;20033;-65
2021/04/22 05:43:56;;;;;;;16.58;2.60;;;5.90;99.90;;;;;;5044091;28;20463;-64
2021/04/22 05:46:22;;;;;;;10.95;1.80;;;6.00;99.90;;;;;;5044120;28;20127;-65
2021/04/22 05:48:47;;;;;;;10.70;1.98;;;6.10;99.90;;;;;;5044528;28;20506;-65
2021/04/22 05:51:13;;;;;;;15.45;1.60;;;6.20;99.90;;;;;;5042809;28;20040;-66
2021/04/22 05:53:38;;;;;;;10.75;1.33;;;6.40;99.90;;;;;;5044604;28;20032;-65
2021/04/22 05:56:04;;;;;;;12.13;2.15;;;6.60;99.90;;;;;;5044686;28;20029;-65
2021/04/22 05:58:30;;;;;;;9.75;1.63;;;6.80;99.90;;;;;;5042953;28;20104;-64
2021/04/22 06:00:55;;;;;;;9.75;2.80;;;6.80;99.90;;;;;;5043638;28;20036;-65
2021/04/22 06:03:21;;;;;;;15.25;1.92;;;6.90;99.90;;;;;;5043741;28;20048;-65
2021/04/22 06:05:46;;;;;;;11.85;1.23;;;7.00;99.90;;;;;;5043472;28;20045;-65
2021/04/22 06:08:12;;;;;;;8.52;1.58;;;7.20;99.90;;;;;;5043614;28;20047;-66
2021/04/22 06:10:38;;;;;;;11.93;1.63;;;7.20;99.90;;;;;;5043016;28;20116;-65
2021/04/22 06:13:04;;;;;;;13.48;1.95;;;7.30;99.90;;;;;;5025752;28;20029;-65
2021/04/22 06:15:30;;;;;;;15.27;1.70;;;7.30;99.90;;;;;;5043580;28;20076;-65
2021/04/22 06:17:55;;;;;;;20.83;1.30;;;7.40;99.90;;;;;;5043960;28;20032;-64
2021/04/22 06:20:23;;;;;;;17.25;2.15;;;7.50;99.90;;;;;;5043587;28;20045;-65
2021/04/22 06:22:50;;;;;;;9.68;2.95;;;7.60;99.90;;;;;;5058601;28;20033;-63
2021/04/22 06:25:20;;;;;;;6.70;1.20;;;7.70;99.90;;;;;;5062624;28;20060;-66
2021/04/22 06:27:46;;;;;;;5.95;0.80;;;7.70;99.90;;;;;;5062914;28;20092;-64
2021/04/22 06:30:13;;;;;;;5.20;1.25;;;7.80;99.90;;;;;;5043754;28;20462;-65
2021/04/22 06:32:39;;;;;;;10.20;1.25;;;7.80;99.90;;;;;;5042934;28;20029;-64
2021/04/22 06:35:07;;;;;;;8.55;2.00;;;7.90;99.90;;;;;;5042928;28;20440;-65
2021/04/22 06:37:32;;;;;;;10.07;1.33;;;8.10;99.90;;;;;;5043333;28;20033;-65
2021/04/22 06:39:58;;;;;;;8.77;1.23;;;8.20;99.90;;;;;;5025198;28;20380;-64
2021/04/22 06:42:24;;;;;;;9.27;1.95;;;8.30;99.90;;;;;;5042975;28;20448;-63
2021/04/22 06:44:50;;;;;;;9.70;1.40;;;8.40;99.90;;;;;;5043689;28;20064;-65
2021/04/22 06:47:15;;;;;;;8.77;1.45;;;8.60;99.90;;;;;;5043955;28;20123;-66
2021/04/22 06:49:41;;;;;;;9.00;1.83;;;8.70;99.90;;;;;;5023891;28;20025;-65
2021/04/22 06:52:07;;;;;;;11.23;1.10;;;8.90;99.90;;;;;;5043757;28;20036;-65
2021/04/22 06:54:34;;;;;;;8.70;0.80;;;9.00;99.00;;;;;;5043707;28;20094;-63
2021/04/22 06:56:59;;;;;;;10.07;1.27;;;9.10;98.90;;;;;;5043229;28;20044;-64
2021/04/22 06:59:25;;;;;;;3.08;1.10;;;9.20;97.60;;;;;;5042652;28;20060;-65
2021/04/22 07:01:51;;;;;;;6.68;0.90;;;9.60;97.20;;;;;;5043535;28;20434;-65
2021/04/22 07:04:17;;;;;;;7.85;0.93;;;10.20;93.80;;;;;;5042459;28;20041;-65
2021/04/22 07:06:43;;;;;;;8.48;0.95;;;10.30;91.30;;;;;;5017995;28;20041;-66
2021/04/22 07:09:08;;;;;;;7.88;1.08;;;10.30;90.00;;;;;;5042008;28;20490;-65
2021/04/22 07:11:34;;;;;;;6.47;1.05;;;10.20;90.60;;;;;;5040337;28;20481;-66
2021/04/22 07:13:59;;;;;;;6.03;0.88;;;10.20;91.80;;;;;;5045455;28;20114;-66
2021/04/22 07:16:25;;;;;;;8.25;1.60;;;10.20;91.70;;;;;;5045568;28;20061;-65
2021/04/22 07:18:52;;;;;;;7.85;0.80;;;10.30;90.70;;;;;;5045494;28;20037;-65
2021/04/22 07:21:18;;;;;;;7.07;0.90;;;10.40;89.60;;;;;;5045565;28;20064;-64
2021/04/22 07:23:43;;;;;;;3.75;1.13;;;10.50;88.70;;;;;;5047067;28;20379;-66
2021/04/22 07:26:09;;;;;;;6.15;1.40;;;10.50;86.10;;;;;;5046781;28;20033;-66
2021/04/22 07:28:35;;;;;;;11.20;1.20;;;10.30;87.50;;;;;;5046220;28;20033;-65
2021/04/22 07:31:00;;;;;;;11.68;1.83;;;10.40;90.20;;;;;;5028073;28;20072;-65
2021/04/22 07:33:26;;;;;;;7.63;1.45;;;10.30;88.40;;;;;;5046061;28;20041;-64
2021/04/22 07:35:52;;;;;;;5.40;1.02;;;10.20;87.10;;;;;;5044282;28;20498;-66
2021/04/22 07:38:18;;;;;;;2.95;1.02;;;10.30;86.60;;;;;;5046409;28;20041;-66
2021/04/22 07:40:44;;;;;;;8.40;1.02;;;10.10;85.20;;;;;;5027929;28;20037;-64
2021/04/22 07:43:11;;;;;;;5.95;1.02;;;10.10;85.90;;;;;;5046537;28;20033;-65
2021/04/22 07:45:40;;;;;;;6.65;1.20;;;10.10;86.70;;;;;;5047079;28;20092;-64
2021/04/22 07:48:07;;;;;;;4.57;0.93;;;10.20;88.80;;;;;;5043353;28;20398;-65
2021/04/22 07:50:34;;;;;;;5.50;0.82;;;10.20;85.60;;;;;;5024292;28;20541;-65
2021/04/22 07:53:01;;;;;;;5.95;0.88;;;10.40;86.00;;;;;;5029380;28;20379;-64
2021/04/22 07:55:32;;;;;;;6.82;1.20;;;10.60;83.50;;;;;;5028837;28;20048;-64
2021/04/22 07:57:57;;;;;;;7.97;1.50;;;10.70;83.60;;;;;;5029000;28;20035;-65
2021/04/22 08:00:24;;;;;;;10.20;1.27;;;11.00;79.30;;;;;;5047421;28;20029;-64
2021/04/22 08:02:50;;;;;;;8.52;1.45;;;11.00;78.90;;;;;;5052638;28;20162;-66
2021/04/22 08:05:18;;;;;;;9.30;1.95;;;10.90;78.90;;;;;;5059419;28;20045;-65
2021/04/22 08:07:44;;;;;;;5.53;1.17;;;11.10;80.30;;;;;;5062217;28;20068;-63
2021/04/22 08:10:15;;;;;;;8.48;1.73;;;11.20;77.90;;;;;;5057083;28;20393;-65
2021/04/22 08:12:41;;;;;;;2.17;0.82;;;11.10;76.20;;;;;;5048008;28;20504;-65
2021/04/22 08:15:09;;;;;;;7.72;1.25;;;10.80;77.60;;;;;;5046324;28;20040;-66
2021/04/22 08:17:39;;;;;;;6.75;1.20;;;10.70;78.70;;;;;;5044656;28;20115;-66
2021/04/22 08:20:07;;;;;;;8.03;1.17;;;10.80;81.10;;;;;;5042320;28;20029;-65
2021/04/22 08:22:35;;;;;;;6.10;0.73;;;11.10;79.30;;;;;;5041997;28;20489;-65
2021/04/22 08:25:01;;;;;;;4.40;0.73;;;11.30;77.50;;;;;;5042415;28;20032;-66
2021/04/22 08:27:27;;;;;;;8.40;0.68;;;11.50;76.90;;;;;;5045850;28;20083;-65
2021/04/22 08:29:53;;;;;;;7.18;0.80;;;11.20;73.20;;;;;;5045220;28;20040;-65
2021/04/22 08:32:19;;;;;;;7.32;1.38;;;10.80;76.80;;;;;;5027340;28;20410;-65
2021/04/22 08:34:45;;;;;;;4.50;1.80;;;10.70;78.70;;;;;;5045906;28;20090;-65
2021/04/22 08:37:10;;;;;;;5.95;0.90;;;10.60;80.60;;;;;;5028056;28;20037;-65
2021/04/22 08:39:36;;;;;;;9.13;1.02;;;10.60;81.70;;;;;;5045075;28;20037;-66
2021/04/22 08:42:03;;;;;;;9.88;1.85;;;10.80;80.20;;;;;;5045881;28;20044;-66
2021/04/22 08:44:29;;;;;;;7.47;0.95;;;10.90;81.10;;;;;;5046380;28;20106;-65
2021/04/22 08:46:55;;;;;;;4.70;0.88;;;10.80;80.30;;;;;;5045200;28;20060;-66
2021/04/22 08:49:20;;;;;;;6.57;1.10;;;10.70;78.90;;;;;;5045892;28;20033;-66
2021/04/22 08:51:47;;;;;;;6.03;1.42;;;10.60;78.30;;;;;;5045584;28;20037;-65
2021/04/22 08:54:14;;;;;;;6.50;0.77;;;10.40;79.70;;;;;;5045141;28;20044;-65
2021/04/22 08:56:41;;;;;;;7.38;1.30;;;10.30;81.00;;;;;;5027882;28;20041;-65
2021/04/22 08:59:06;;;;;;;5.75;1.00;;;10.40;81.80;;;;;;5044719;28;20033;-66
2021/04/22 09:01:33;;;;;;;5.03;1.27;;;10.70;84.20;;;;;;5045064;28;20436;-65
2021/04/22 09:04:00;;;;;;;5.93;0.85;;;11.00;78.90;;;;;;5041601;28;20037;-65
2021/04/22 09:06:28;;;;;;;5.22;1.30;;;11.10;77.60;;;;;;5044642;28;20120;-68
2021/04/22 09:08:54;;;;;;;4.80;0.88;;;11.40;78.00;;;;;;5044324;28;20417;-66
2021/04/22 09:11:26;;;;;;;3.50;1.10;;;11.50;73.60;;;;;;5040347;28;20132;-66
2021/04/22 09:13:53;;;;;;;4.45;1.00;;;11.30;74.90;;;;;;5044504;28;20039;-65
2021/04/22 09:16:21;;;;;;;3.75;1.00;;;11.20;77.60;;;;;;5026536;28;20063;-66
2021/04/22 09:18:52;;;;;;;9.27;1.40;;;11.30;78.80;;;;;;5041508;28;20486;-65
2021/04/22 09:21:31;;;;;;;11.70;0.82;;;11.50;78.00;;;;;;5042675;28;20035;-66
2021/04/22 09:23:58;;;;;;;6.32;0.93;;;11.90;75.40;;;;;;5043591;28;20477;-67
2021/04/22 09:26:53;;;;;;;7.28;1.10;;;12.00;74.10;;;;;;5044795;28;20482;-66
2021/04/22 09:29:45;;;;;;;5.25;1.00;;;12.20;72.90;;;;;;5044045;28;20033;-66
2021/04/22 09:32:19;;;;;;;6.60;1.08;;;12.20;70.00;;;;;;5044854;28;20099;-66
2021/04/22 09:34:50;;;;;;;6.78;1.02;;;11.90;69.70;;;;;;5026421;28;20163;-66
2021/04/22 09:37:16;;;;;;;7.25;0.82;;;11.80;71.50;;;;;;5043910;28;20041;-65
2021/04/22 09:39:42;;;;;;;9.68;1.23;;;12.00;73.00;;;;;;5046087;28;20033;-66
2021/04/22 09:42:12;;;;;;;8.55;0.90;;;12.20;71.40;;;;;;5056132;28;20044;-66
2021/04/22 09:44:41;;;;;;;6.40;1.00;;;11.90;68.90;;;;;;5049961;28;20105;-66
2021/04/22 09:47:16;;;;;;;5.47;1.10;;;11.80;70.60;;;;;;5050728;28;20276;-66
2021/04/22 09:49:56;;;;;;;5.78;1.20;;;11.90;70.40;;;;;;5045769;28;20488;-67
2021/04/22 09:52:22;;;;;;;5.90;0.85;;;11.80;69.10;;;;;;5027015;28;20063;-66
2021/04/22 09:54:53;;;;;;;2.35;0.70;;;11.90;70.40;;;;;;5052771;28;20101;-67
2021/04/22 09:57:29;;;;;;;8.38;0.93;;;12.00;70.90;;;;;;5054781;28;20485;-66
2021/04/22 09:59:56;;;;;;;8.10;1.10;;;12.10;68.90;;;;;;5049186;28;20040;-67
2021/04/22 10:02:23;;;;;;;9.00;1.30;;;12.30;69.10;;;;;;5042412;28;20037;-68
2021/04/22 10:04:53;;;;;;;3.25;0.82;;;12.30;68.70;;;;;;5041850;28;20062;-66
2021/04/22 10:07:24;;;;;;;8.40;1.17;;;12.20;67.10;;;;;;5050686;28;20254;-65
2021/04/22 10:09:52;;;;;;;8.82;1.13;;;11.90;68.20;;;;;;5040979;28;20041;-65
2021/04/22 10:12:25;;;;;;;9.18;1.27;;;12.00;67.40;;;;;;5043042;28;20047;-65
2021/04/22 10:14:51;;;;;;;6.68;0.80;;;12.30;68.40;;;;;;5044267;28;20037;-65
2021/04/22 10:17:20;;;;;;;6.55;0.98;;;12.10;69.30;;;;;;5037643;28;20456;-65
2021/04/22 10:20:09;;;;;;;6.78;0.98;;;12.00;69.60;;;;;;5041944;28;20043;-64
2021/04/22 10:22:37;;;;;;;4.55;1.00;;;11.80;71.80;;;;;;5037590;28;20044;-65
2021/04/22 10:25:08;;;;;;;8.68;1.23;;;11.60;71.50;;;;;;5042756;28;20115;-65
2021/04/22 10:27:35;;;;;;;14.23;0.90;;;11.50;73.30;;;;;;5040368;28;20033;-66
2021/04/22 10:30:02;;;;;;;3.47;0.93;;;11.60;70.40;;;;;;5022859;28;20041;-65
2021/04/22 10:32:28;;;;;;;3.03;1.08;;;11.60;71.60;;;;;;5037297;28;20044;-66
2021/04/22 10:34:55;;;;;;;11.65;1.45;;;11.60;70.80;;;;;;5036706;28;20037;-65
2021/04/22 10:37:22;;;;;;;5.93;1.25;;;11.80;70.60;;;;;;5041314;28;20040;-66
2021/04/22 10:39:48;;;;;;;4.72;1.05;;;11.80;70.20;;;;;;5040395;28;20072;-66
2021/04/22 10:42:17;;;;;;;5.97;1.00;;;11.90;69.90;;;;;;5041231;28;20135;-69
2021/04/22 10:44:48;;;;;;;5.22;1.00;;;12.10;69.90;;;;;;5042182;28;20025;-65
2021/04/22 10:47:14;;;;;;;;;;;12.10;70.00;;;;;;5044459;28;20045;-66
2021/04/22 10:49:40;;;;;;;6.47;1.17;;;12.10;71.40;;;;;;5047179;28;19990;-65
2021/04/22 10:52:06;;;;;;;5.18;1.20;;;12.10;69.70;;;;;;5030916;28;20048;-66
2021/04/22 10:54:36;;;;;;;4.10;0.85;;;12.20;71.00;;;;;;5048523;28;20057;-66
2021/04/22 10:57:10;;;;;;;6.00;1.10;;;12.20;70.40;;;;;;5051715;28;20423;-66
2021/04/22 10:59:36;;;;;;;5.65;0.85;;;12.10;69.70;;;;;;5049610;28;20033;-65
2021/04/22 11:02:17;;;;;;;5.57;0.93;;;12.10;68.30;;;;;;5046309;28;20505;-67
2021/04/22 11:04:44;;;;;;;6.75;1.08;;;12.10;66.70;;;;;;5047072;28;20175;-65
2021/04/22 11:07:21;;;;;;;3.17;0.95;;;12.10;68.70;;;;;;5047455;28;20032;-65
2021/04/22 11:09:48;;;;;;;6.38;1.92;;;12.00;65.20;;;;;;5046527;28;20072;-65
2021/04/22 11:12:28;;;;;;;3.50;1.63;;;12.00;68.30;;;;;;5047509;28;20064;-65
2021/04/22 11:14:55;;;;;;;10.60;1.30;;;12.30;68.70;;;;;;5043906;28;20328;-65
2021/04/22 11:17:35;;;;;;;5.63;1.23;;;12.40;67.70;;;;;;5047442;28;20470;-65
2021/04/22 11:20:11;;;;;;;4.18;1.00;;;12.00;68.40;;;;;;5044077;28;20040;-65
2021/04/22 11:22:37;;;;;;;8.77;1.20;;;11.80;71.00;;;;;;5047122;28;20084;-66
2021/04/22 11:25:06;;;;;;;5.80;1.65;;;11.90;69.90;;;;;;5046417;28;20041;-66
2021/04/22 11:27:33;;;;;;;6.93;1.33;;;12.00;70.10;;;;;;5046727;28;20028;-65
2021/04/22 11:30:03;;;;;;;9.15;1.35;;;12.00;69.00;;;;;;5046516;28;21017;-66
2021/04/22 11:32:39;;;;;;;5.85;1.02;;;12.10;68.60;;;;;;5048204;28;20033;-66
2021/04/22 11:35:05;;;;;;;6.53;1.13;;;12.10;68.80;;;;;;5047596;28;20512;-65
2021/04/22 11:37:40;;;;;;;13.20;1.70;;;12.20;68.90;;;;;;5048529;28;20472;-66
2021/04/22 11:40:17;;;;;;;7.50;1.40;;;12.00;67.50;;;;;;5047667;28;20096;-66
2021/04/22 11:42:48;;;;;;;5.28;0.90;;;12.00;69.10;;;;;;5031809;28;20037;-66
2021/04/22 11:45:27;;;;;;;5.65;1.20;;;12.10;70.40;;;;;;5051165;28;20045;-66
2021/04/22 11:48:02;;;;;;;6.13;0.93;;;12.00;70.40;;;;;;5062880;28;20289;-66
2021/04/22 11:50:40;;;;;;;5.28;0.90;;;12.00;72.60;;;;;;5047396;28;20052;-66
2021/04/22 11:53:06;;;;;;;7.13;1.30;;;12.00;72.50;;;;;;5064046;28;20021;-66
2021/04/22 11:55:36;;;;;;;4.75;1.00;;;11.80;72.00;;;;;;5052176;28;20147;-65
2021/04/22 11:58:06;;;;;;;8.52;1.10;;;11.60;73.90;;;;;;5047309;28;20035;-65
2021/04/22 12:00:40;;;;;;;8.18;1.48;;;11.60;75.50;;;;;;5028290;28;20771;-66
2021/04/22 12:03:07;;;;;;;6.28;1.30;;;11.70;75.80;;;;;;5049546;28;20103;-66
2021/04/22 12:05:34;;;;;;;3.67;1.05;;;11.80;75.10;;;;;;5049430;28;20036;-65
2021/04/22 12:08:03;;;;;;;10.15;1.33;;;11.90;75.20;;;;;;5046245;28;20037;-65
2021/04/22 12:10:31;;;;;;;7.40;1.38;;;12.00;75.70;;;;;;5047410;28;20090;-65
2021/04/22 12:13:07;;;;;;;4.93;1.20;;;12.20;71.70;;;;;;5046240;28;20061;-66
2021/04/22 12:15:42;;;;;;;3.88;0.95;;;12.40;70.80;;;;;;5044021;28;20099;-66
2021/04/22 12:18:10;;;;;;;3.67;1.02;;;12.50;70.50;;;;;;5046450;28;20379;-66
2021/04/22 12:20:37;;;;;;;5.68;0.73;;;12.70;70.50;;;;;;5046113;28;20026;-66
2021/04/22 12:23:04;;;;;;;9.13;1.17;;;12.80;70.40;;;;;;5046071;28;20091;-66
2021/04/22 12:25:30;;;;;;;4.00;0.85;;;12.70;67.00;;;;;;5046908;28;20079;-65
2021/04/22 12:28:03;;;;;;;7.50;1.00;;;12.50;67.90;;;;;;5045905;28;20025;-65
2021/04/22 12:30:34;;;;;;;3.42;0.80;;;12.50;68.90;;;;;;5044966;28;20088;-66
2021/04/22 12:33:05;;;;;;;;;;;12.50;68.60;;;;;;5044844;28;20029;-65
2021/04/22 12:35:32;;;;;;;6.53;1.00;;;12.30;67.70;;;;;;5046281;28;19920;-65
2021/04/22 12:38:11;;;;;;;6.53;1.05;;;12.20;68.20;;;;;;5044883;28;20025;-65
2021/04/22 12:40:36;;;;;;;4.47;1.00;;;11.90;68.60;;;;;;5045900;28;20033;-66
2021/04/22 12:43:02;;;;;;;3.40;1.20;;;11.80;71.90;;;;;;5028206;28;20025;-65
2021/04/22 12:45:29;;;;;;;4.45;0.80;;;11.80;71.50;;;;;;5045239;28;20091;-65
2021/04/22 12:48:00;;;;;;;8.50;1.05;;;11.80;70.50;;;;;;5045770;28;20124;-66
2021/04/22 12:50:25;;;;;;;6.82;0.82;;;11.80;72.90;;;;;;5045903;28;20438;-66